createdAt,value
2023-04-28T00:00:49.299Z,15.45
2023-04-28T00:03:15.722Z,15.40
2023-04-28T00:05:42.131Z,15.63
2023-04-28T00:08:08.460Z,15.53
2023-04-28T00:10:34.766Z,15.29
2023-04-28T00:13:01.100Z,15.44
2023-04-28T00:15:27.415Z,15.39
2023-04-28T00:17:53.797Z,15.33
2023-04-28T00:20:20.142Z,15.39
2023-04-28T00:22:46.450Z,15.32
2023-04-28T00:25:12.769Z,15.30
2023-04-28T00:27:39.128Z,14.91
2023-04-28T00:30:05.420Z,14.61
2023-04-28T00:32:31.758Z,14.95
2023-04-28T00:34:58.118Z,14.89
2023-04-28T00:37:24.437Z,14.87
2023-04-28T00:39:50.726Z,14.99
2023-04-28T00:42:17.050Z,15.10
2023-04-28T00:44:43.361Z,15.01
2023-04-28T00:47:09.653Z,14.77
2023-04-28T00:49:35.973Z,15.20
2023-04-28T00:52:02.266Z,15.41
2023-04-28T00:54:32.746Z,15.19
2023-04-28T00:56:59.054Z,15.36
2023-04-28T00:59:25.344Z,15.49
2023-04-28T01:01:51.632Z,15.35
2023-04-28T01:04:18.273Z,15.21
2023-04-28T01:06:44.830Z,15.13
2023-04-28T01:09:11.120Z,15.09
2023-04-28T01:11:37.418Z,15.18
2023-04-28T01:14:03.727Z,15.33
2023-04-28T01:16:30.072Z,15.32
2023-04-28T01:18:56.432Z,15.18
2023-04-28T01:21:22.720Z,14.89
2023-04-28T01:23:49.026Z,14.88
2023-04-28T01:26:15.388Z,15.17
2023-04-28T01:28:41.712Z,14.44
2023-04-28T01:31:08.033Z,15.07
2023-04-28T01:33:34.419Z,15.22
2023-04-28T01:36:00.743Z,15.28
2023-04-28T01:38:27.046Z,15.10
2023-04-28T01:40:53.360Z,14.74
2023-04-28T01:43:19.708Z,14.83
2023-04-28T01:45:46.086Z,15.05
2023-04-28T01:48:12.520Z,15.01
2023-04-28T01:50:38.851Z,14.94
2023-04-28T01:53:05.149Z,15.23
2023-04-28T01:55:31.451Z,14.87
2023-04-28T01:57:57.745Z,14.84
2023-04-28T02:00:24.425Z,14.94
2023-04-28T02:02:50.800Z,15.11
2023-04-28T02:05:17.188Z,15.11
2023-04-28T02:07:43.484Z,15.06
2023-04-28T02:10:09.815Z,14.97
2023-04-28T02:12:36.123Z,14.94
2023-04-28T02:15:02.417Z,14.88
2023-04-28T02:17:28.768Z,14.99
2023-04-28T02:19:55.096Z,14.92
2023-04-28T02:22:21.393Z,14.72
2023-04-28T02:24:47.715Z,14.73
2023-04-28T02:27:14.025Z,14.76
2023-04-28T02:29:40.324Z,14.46
2023-04-28T02:32:06.639Z,14.45
2023-04-28T02:34:32.934Z,14.73
2023-04-28T02:36:59.248Z,14.85
2023-04-28T02:39:25.612Z,14.88
2023-04-28T02:41:51.919Z,14.15
2023-04-28T02:44:18.338Z,14.48
2023-04-28T02:46:44.920Z,14.56
2023-04-28T02:49:11.248Z,14.90
2023-04-28T02:51:37.551Z,14.86
2023-04-28T02:54:03.901Z,14.16
2023-04-28T02:56:30.214Z,14.45
2023-04-28T02:58:56.516Z,14.48
2023-04-28T03:01:23.702Z,14.34
2023-04-28T03:03:50.216Z,14.76
2023-04-28T03:06:16.611Z,14.96
2023-04-28T03:08:42.930Z,14.67
2023-04-28T03:11:11.147Z,14.94
2023-04-28T03:13:37.435Z,15.10
2023-04-28T03:16:03.828Z,15.00
2023-04-28T03:18:30.174Z,15.15
2023-04-28T03:20:56.470Z,15.09
2023-04-28T03:23:22.796Z,14.91
2023-04-28T03:25:49.094Z,14.47
2023-04-28T03:28:15.391Z,14.68
2023-04-28T03:30:41.699Z,14.98
2023-04-28T03:33:08.154Z,14.96
2023-04-28T03:35:34.516Z,15.03
2023-04-28T03:38:00.827Z,15.06
2023-04-28T03:40:27.134Z,15.21
2023-04-28T03:42:53.442Z,15.04
2023-04-28T03:45:19.820Z,15.11
2023-04-28T03:47:46.138Z,15.13
2023-04-28T03:50:12.457Z,15.02
2023-04-28T03:52:38.775Z,15.25
2023-04-28T03:55:05.082Z,15.11
2023-04-28T03:57:31.401Z,15.08
2023-04-28T03:59:57.726Z,15.05
2023-04-28T04:02:24.169Z,15.07
2023-04-28T04:04:50.807Z,14.99
2023-04-28T04:07:17.367Z,14.94
2023-04-28T04:09:43.656Z,14.99
2023-04-28T04:12:14.552Z,14.94
2023-04-28T04:14:40.911Z,14.89
2023-04-28T04:17:07.245Z,14.96
2023-04-28T04:19:33.553Z,14.94
2023-04-28T04:21:59.861Z,15.04
2023-04-28T04:24:26.170Z,15.05
2023-04-28T04:26:52.471Z,15.01
2023-04-28T04:29:18.789Z,14.99
2023-04-28T04:31:45.183Z,15.25
2023-04-28T04:34:11.572Z,15.18
2023-04-28T04:36:37.884Z,15.03
2023-04-28T04:39:04.181Z,15.03
2023-04-28T04:41:30.479Z,14.91
2023-04-28T04:43:56.808Z,14.89
2023-04-28T04:46:23.177Z,15.01
2023-04-28T04:48:49.496Z,14.98
2023-04-28T04:51:15.861Z,15.08
2023-04-28T04:53:42.157Z,14.93
2023-04-28T04:56:08.472Z,15.02
2023-04-28T04:58:34.801Z,14.91
2023-04-28T05:01:01.127Z,14.99
2023-04-28T05:03:27.529Z,14.95
2023-04-28T05:05:53.954Z,14.99
2023-04-28T05:08:20.264Z,14.89
2023-04-28T05:10:46.574Z,15.06
2023-04-28T05:13:12.903Z,15.13
2023-04-28T05:15:39.212Z,15.10
2023-04-28T05:18:05.527Z,14.99
2023-04-28T05:20:31.855Z,14.98
2023-04-28T05:22:58.157Z,14.97
2023-04-28T05:25:24.446Z,14.99
2023-04-28T05:27:50.946Z,15.03
2023-04-28T05:30:17.288Z,14.97
2023-04-28T05:32:43.622Z,15.10
2023-04-28T05:35:09.965Z,15.06
2023-04-28T05:37:36.354Z,15.07
2023-04-28T05:40:02.654Z,15.15
2023-04-28T05:42:28.979Z,15.08
2023-04-28T05:44:55.292Z,15.16
2023-04-28T05:47:21.648Z,15.22
2023-04-28T05:49:47.993Z,15.43
2023-04-28T05:52:14.326Z,15.40
2023-04-28T05:54:40.644Z,15.41
2023-04-28T05:57:07.007Z,15.42
2023-04-28T05:59:33.321Z,15.36
2023-04-28T06:02:00.824Z,15.39
2023-04-28T06:04:27.661Z,15.50
2023-04-28T06:06:54.219Z,15.44
2023-04-28T06:09:20.525Z,15.50
2023-04-28T06:11:46.855Z,15.51
2023-04-28T06:14:13.156Z,15.44
2023-04-28T06:16:39.457Z,15.46
2023-04-28T06:19:05.786Z,15.52
2023-04-28T06:21:32.083Z,15.53
2023-04-28T06:23:58.382Z,15.54
2023-04-28T06:26:24.696Z,15.50
2023-04-28T06:28:51.142Z,15.44
2023-04-28T06:31:17.514Z,15.53
2023-04-28T06:33:43.836Z,15.51
2023-04-28T06:36:10.146Z,15.49
2023-04-28T06:38:36.431Z,15.45
2023-04-28T06:41:02.929Z,15.32
2023-04-28T06:43:29.291Z,15.34
2023-04-28T06:45:55.590Z,15.30
2023-04-28T06:48:22.065Z,15.27
2023-04-28T06:50:48.360Z,15.40
2023-04-28T06:53:14.683Z,15.39
2023-04-28T06:55:40.994Z,15.47
2023-04-28T06:58:07.289Z,15.62
2023-04-28T07:00:33.647Z,15.60
2023-04-28T07:03:00.087Z,15.89
2023-04-28T07:05:26.472Z,15.96
2023-04-28T07:07:52.895Z,15.76
2023-04-28T07:10:19.223Z,15.81
2023-04-28T07:12:45.642Z,15.89
2023-04-28T07:15:11.950Z,15.92
2023-04-28T07:17:38.371Z,15.89
2023-04-28T07:20:04.720Z,15.83
2023-04-28T07:22:31.017Z,15.97
2023-04-28T07:24:57.333Z,16.00
2023-04-28T07:27:23.640Z,16.02
2023-04-28T07:29:49.942Z,16.04
2023-04-28T07:32:16.400Z,16.13
2023-04-28T07:34:42.832Z,16.14
2023-04-28T07:37:09.130Z,16.17
2023-04-28T07:39:35.619Z,16.21
2023-04-28T07:42:01.953Z,16.24
2023-04-28T07:44:28.243Z,16.10
2023-04-28T07:46:54.567Z,16.13
2023-04-28T07:49:20.868Z,16.07
2023-04-28T07:51:47.169Z,16.11
2023-04-28T07:54:13.490Z,16.19
2023-04-28T07:56:39.788Z,16.27
2023-04-28T07:59:06.084Z,16.26
2023-04-28T08:01:32.619Z,16.27
2023-04-28T08:03:59.147Z,16.26
2023-04-28T08:06:25.938Z,16.38
2023-04-28T08:08:52.520Z,16.31
2023-04-28T08:11:20.468Z,16.20
2023-04-28T08:13:47.086Z,16.34
2023-04-28T08:16:13.423Z,16.38
2023-04-28T08:18:39.834Z,16.33
2023-04-28T08:21:06.240Z,16.39
2023-04-28T08:23:34.402Z,16.43
2023-04-28T08:26:01.042Z,16.48
2023-04-28T08:28:27.362Z,16.54
2023-04-28T08:30:53.825Z,16.58
2023-04-28T08:33:20.167Z,16.59
2023-04-28T08:35:46.495Z,16.69
2023-04-28T08:38:12.819Z,16.81
2023-04-28T08:40:39.124Z,16.84
2023-04-28T08:43:05.426Z,16.96
2023-04-28T08:45:31.749Z,17.03
2023-04-28T08:47:58.105Z,17.12
2023-04-28T08:50:24.422Z,17.16
2023-04-28T08:52:50.786Z,17.17
2023-04-28T08:55:17.122Z,17.15
2023-04-28T08:57:43.463Z,17.22
2023-04-28T09:00:09.806Z,17.32
2023-04-28T09:02:36.265Z,17.41
2023-04-28T09:05:02.833Z,17.51
2023-04-28T09:07:29.411Z,17.56
2023-04-28T09:09:55.770Z,17.51
2023-04-28T09:12:22.181Z,17.36
2023-04-28T09:14:48.561Z,17.29
2023-04-28T09:17:14.851Z,17.00
2023-04-28T09:19:41.167Z,17.36
2023-04-28T09:22:17.633Z,17.52
2023-04-28T09:24:51.510Z,17.55
2023-04-28T09:27:17.842Z,17.36
2023-04-28T09:29:44.137Z,17.45
2023-04-28T09:32:10.556Z,17.59
2023-04-28T09:34:36.948Z,17.90
2023-04-28T09:37:03.286Z,18.15
2023-04-28T09:39:29.683Z,18.25
2023-04-28T09:41:57.414Z,18.22
2023-04-28T09:44:24.781Z,18.37
2023-04-28T09:46:51.085Z,18.34
2023-04-28T09:49:17.416Z,18.23
2023-04-28T09:51:43.716Z,18.42
2023-04-28T09:54:10.041Z,18.48
2023-04-28T09:56:36.367Z,18.40
2023-04-28T09:59:02.674Z,18.72
2023-04-28T10:01:29.068Z,18.46
2023-04-28T10:03:55.456Z,18.32
2023-04-28T10:06:21.806Z,18.29
2023-04-28T10:08:48.098Z,18.24
2023-04-28T10:11:14.712Z,18.28
2023-04-28T10:13:41.028Z,18.40
2023-04-28T10:16:07.357Z,18.48
2023-04-28T10:18:33.734Z,18.50
2023-04-28T10:21:00.041Z,18.62
2023-04-28T10:23:26.350Z,18.73
2023-04-28T10:25:52.668Z,18.87
2023-04-28T10:28:18.971Z,18.74
2023-04-28T10:30:45.293Z,18.70
2023-04-28T10:33:11.824Z,18.75
2023-04-28T10:35:38.320Z,18.83
2023-04-28T10:38:04.641Z,18.94
2023-04-28T10:40:30.955Z,19.06
2023-04-28T10:42:57.264Z,19.15
2023-04-28T10:45:23.579Z,19.11
2023-04-28T10:47:49.960Z,19.14
2023-04-28T10:50:16.331Z,19.10
2023-04-28T10:52:43.163Z,19.18
2023-04-28T10:55:19.415Z,19.37
2023-04-28T10:57:48.257Z,19.62
2023-04-28T11:00:14.602Z,19.98
2023-04-28T11:02:43.914Z,20.19
2023-04-28T11:05:11.322Z,19.85
2023-04-28T11:07:37.701Z,19.72
2023-04-28T11:10:03.985Z,19.57
2023-04-28T11:12:30.579Z,19.48
2023-04-28T11:14:57.574Z,19.44
2023-04-28T11:17:23.905Z,19.34
2023-04-28T11:19:50.213Z,19.32
2023-04-28T11:22:16.586Z,19.44
2023-04-28T11:24:42.895Z,19.59
2023-04-28T11:27:09.216Z,19.85
2023-04-28T11:29:35.557Z,19.90
2023-04-28T11:32:01.906Z,20.06
2023-04-28T11:34:28.284Z,20.05
2023-04-28T11:36:55.063Z,20.30
2023-04-28T11:39:21.438Z,20.30
2023-04-28T11:41:47.726Z,20.32
2023-04-28T11:44:14.050Z,20.56
2023-04-28T11:46:40.348Z,20.70
2023-04-28T11:49:06.670Z,20.60
2023-04-28T11:51:33.021Z,21.03
2023-04-28T11:53:59.546Z,21.45
2023-04-28T11:56:25.903Z,21.70
2023-04-28T11:58:52.260Z,21.33
2023-04-28T12:01:18.589Z,21.14
2023-04-28T12:03:45.112Z,20.96
2023-04-28T12:06:11.488Z,20.85
2023-04-28T12:08:37.799Z,20.76
2023-04-28T12:11:04.256Z,20.65
2023-04-28T12:13:30.621Z,20.59
2023-04-28T12:15:56.919Z,20.61
2023-04-28T12:18:23.235Z,20.60
2023-04-28T12:20:49.724Z,20.36
2023-04-28T12:23:16.115Z,20.29
2023-04-28T12:25:42.417Z,20.26
2023-04-28T12:28:08.861Z,20.21
2023-04-28T12:30:35.210Z,20.27
2023-04-28T12:33:01.571Z,20.32
2023-04-28T12:35:27.963Z,20.36
2023-04-28T12:37:54.269Z,20.59
2023-04-28T12:40:20.594Z,20.80
2023-04-28T12:42:46.924Z,20.85
2023-04-28T12:45:13.367Z,21.15
2023-04-28T12:47:39.732Z,20.75
2023-04-28T12:50:06.060Z,20.65
2023-04-28T12:52:32.477Z,20.75
2023-04-28T12:54:58.762Z,20.75
2023-04-28T12:57:25.097Z,20.74
2023-04-28T12:59:51.393Z,20.76
2023-04-28T13:02:17.729Z,20.86
2023-04-28T13:04:44.218Z,20.96
2023-04-28T13:07:10.644Z,20.82
2023-04-28T13:09:38.385Z,20.85
2023-04-28T13:12:04.897Z,20.99
2023-04-28T13:14:31.198Z,20.87
2023-04-28T13:16:57.508Z,20.74
2023-04-28T13:19:23.854Z,20.81
2023-04-28T13:21:50.170Z,20.74
2023-04-28T13:24:16.471Z,20.83
2023-04-28T13:26:42.804Z,20.77
2023-04-28T13:29:09.104Z,20.65
2023-04-28T13:31:35.436Z,20.67
2023-04-28T13:34:01.826Z,20.62
2023-04-28T13:36:28.128Z,20.59
2023-04-28T13:38:54.423Z,20.53
2023-04-28T13:41:20.734Z,20.63
2023-04-28T13:43:47.035Z,20.60
2023-04-28T13:46:13.353Z,20.74
2023-04-28T13:48:39.729Z,20.92
2023-04-28T13:51:06.025Z,20.93
2023-04-28T13:53:32.322Z,20.97
2023-04-28T13:55:58.647Z,21.01
2023-04-28T13:58:24.953Z,21.05
2023-04-28T14:00:51.376Z,20.95
2023-04-28T14:03:17.933Z,20.93
2023-04-28T14:05:49.313Z,21.06
2023-04-28T14:08:16.632Z,21.02
2023-04-28T14:10:44.004Z,21.04
2023-04-28T14:13:10.322Z,21.05
2023-04-28T14:15:37.182Z,20.91
2023-04-28T14:18:06.642Z,20.90
2023-04-28T14:20:32.963Z,20.98
2023-04-28T14:22:59.254Z,21.02
2023-04-28T14:25:25.567Z,21.06
2023-04-28T14:27:51.870Z,20.99
2023-04-28T14:30:18.172Z,21.06
2023-04-28T14:32:44.566Z,21.09
2023-04-28T14:35:10.880Z,21.03
2023-04-28T14:37:37.255Z,21.09
2023-04-28T14:40:03.756Z,21.28
2023-04-28T14:42:30.079Z,21.41
2023-04-28T14:44:56.380Z,21.47
2023-04-28T14:47:22.879Z,21.46
2023-04-28T14:49:49.314Z,21.46
2023-04-28T14:52:15.618Z,21.43
2023-04-28T14:54:41.972Z,21.44
2023-04-28T14:57:08.278Z,21.37
2023-04-28T14:59:34.659Z,21.27
2023-04-28T15:02:01.035Z,21.27
2023-04-28T15:04:27.451Z,21.35
2023-04-28T15:06:53.910Z,21.40
2023-04-28T15:09:20.223Z,21.40
2023-04-28T15:11:46.633Z,21.37
2023-04-28T15:14:13.170Z,21.31
2023-04-28T15:16:39.632Z,21.12
2023-04-28T15:19:05.953Z,21.33
2023-04-28T15:21:32.263Z,21.32
2023-04-28T15:23:58.580Z,21.44
2023-04-28T15:26:24.882Z,21.41
2023-04-28T15:28:51.176Z,21.48
2023-04-28T15:31:17.504Z,21.53
2023-04-28T15:33:43.815Z,21.37
2023-04-28T15:36:10.107Z,21.44
2023-04-28T15:38:36.429Z,21.46
2023-04-28T15:41:02.737Z,21.36
2023-04-28T15:43:29.034Z,21.17
2023-04-28T15:45:55.443Z,21.23
2023-04-28T15:48:21.756Z,21.39
2023-04-28T15:50:48.067Z,21.44
2023-04-28T15:53:14.401Z,21.37
2023-04-28T15:55:40.702Z,21.39
2023-04-28T15:58:07.000Z,21.42
2023-04-28T16:00:33.326Z,21.34
2023-04-28T16:02:59.766Z,21.28
2023-04-28T16:05:26.144Z,21.34
2023-04-28T16:07:52.469Z,21.44
2023-04-28T16:10:19.055Z,21.44
2023-04-28T16:12:45.354Z,21.49
2023-04-28T16:15:11.674Z,21.56
2023-04-28T16:17:38.189Z,21.49
2023-04-28T16:20:04.679Z,21.50
2023-04-28T16:22:31.028Z,21.49
2023-04-28T16:24:57.341Z,21.55
2023-04-28T16:27:23.655Z,21.58
2023-04-28T16:29:49.974Z,21.66
2023-04-28T16:32:16.394Z,21.67
2023-04-28T16:34:42.785Z,21.67
2023-04-28T16:37:09.117Z,21.55
2023-04-28T16:39:35.424Z,21.59
2023-04-28T16:42:01.720Z,21.63
2023-04-28T16:44:28.044Z,21.63
2023-04-28T16:46:54.338Z,21.63
2023-04-28T16:49:20.648Z,21.49
2023-04-28T16:51:47.025Z,21.53
2023-04-28T16:54:13.320Z,21.33
2023-04-28T16:56:39.617Z,21.44
2023-04-28T16:59:05.945Z,21.28
2023-04-28T17:01:32.298Z,21.40
2023-04-28T17:03:58.719Z,21.40
2023-04-28T17:06:25.137Z,21.36
2023-04-28T17:08:51.437Z,21.33
2023-04-28T17:11:17.729Z,21.39
2023-04-28T17:13:44.057Z,21.38
2023-04-28T17:16:10.395Z,21.14
2023-04-28T17:18:36.717Z,21.14
2023-04-28T17:21:03.050Z,21.08
2023-04-28T17:23:29.354Z,21.06
2023-04-28T17:25:55.663Z,21.14
2023-04-28T17:28:21.970Z,21.16
2023-04-28T17:30:48.276Z,21.19
2023-04-28T17:33:14.580Z,21.12
2023-04-28T17:35:40.947Z,20.98
2023-04-28T17:38:07.325Z,20.97
2023-04-28T17:40:33.646Z,21.02
2023-04-28T17:42:59.992Z,20.98
2023-04-28T17:45:26.285Z,20.97
2023-04-28T17:47:52.614Z,21.08
2023-04-28T17:50:18.972Z,20.84
2023-04-28T17:52:45.294Z,20.92
2023-04-28T17:55:11.596Z,20.98
2023-04-28T17:57:37.978Z,20.70
2023-04-28T18:00:04.307Z,20.78
2023-04-28T18:02:30.655Z,20.79
2023-04-28T18:04:57.018Z,20.67
2023-04-28T18:07:23.838Z,20.74
2023-04-28T18:09:50.278Z,20.75
2023-04-28T18:12:16.583Z,20.76
2023-04-28T18:14:42.881Z,20.49
2023-04-28T18:17:09.184Z,20.51
2023-04-28T18:19:35.520Z,20.49
2023-04-28T18:22:01.819Z,20.33
2023-04-28T18:24:28.115Z,20.29
2023-04-28T18:26:54.468Z,20.16
2023-04-28T18:29:20.758Z,19.93
2023-04-28T18:31:47.093Z,19.81
2023-04-28T18:34:13.451Z,19.65
2023-04-28T18:36:39.751Z,19.73
2023-04-28T18:39:08.319Z,19.68
2023-04-28T18:41:35.141Z,19.56
2023-04-28T18:44:01.711Z,19.51
2023-04-28T18:46:28.098Z,19.55
2023-04-28T18:48:54.480Z,19.65
2023-04-28T18:51:20.792Z,19.53
2023-04-28T18:53:47.130Z,19.66
2023-04-28T18:56:13.448Z,19.50
2023-04-28T18:58:39.846Z,19.65
2023-04-28T19:01:06.210Z,19.60
2023-04-28T19:03:32.735Z,19.56
2023-04-28T19:05:59.198Z,19.47
2023-04-28T19:08:25.608Z,19.36
2023-04-28T19:10:51.921Z,19.25
2023-04-28T19:13:18.225Z,19.52
2023-04-28T19:15:44.541Z,19.55
2023-04-28T19:18:10.943Z,19.21
2023-04-28T19:20:37.243Z,19.17
2023-04-28T19:23:03.566Z,19.16
2023-04-28T19:25:29.923Z,18.84
2023-04-28T19:27:56.227Z,19.02
2023-04-28T19:30:22.540Z,18.89
2023-04-28T19:32:48.916Z,18.80
2023-04-28T19:35:15.226Z,18.72
2023-04-28T19:37:41.780Z,18.65
2023-04-28T19:40:08.157Z,18.81
2023-04-28T19:42:34.454Z,18.98
2023-04-28T19:45:00.740Z,18.74
2023-04-28T19:47:27.084Z,18.89
2023-04-28T19:49:53.438Z,19.01
2023-04-28T19:52:19.745Z,18.96
2023-04-28T19:54:46.072Z,18.52
2023-04-28T19:57:12.376Z,18.63
2023-04-28T19:59:38.673Z,18.62
2023-04-28T20:02:05.034Z,18.65
2023-04-28T20:04:31.509Z,18.59
2023-04-28T20:06:58.003Z,18.83
2023-04-28T20:09:24.363Z,18.42
2023-04-28T20:11:50.693Z,18.24
2023-04-28T20:14:16.996Z,17.56
2023-04-28T20:16:43.334Z,17.92
2023-04-28T20:19:09.651Z,18.17
2023-04-28T20:21:35.955Z,18.08
2023-04-28T20:24:02.282Z,17.74
2023-04-28T20:26:28.599Z,17.95
2023-04-28T20:28:54.904Z,17.96
2023-04-28T20:31:21.301Z,17.73
2023-04-28T20:33:47.725Z,17.75
2023-04-28T20:36:14.034Z,17.72
2023-04-28T20:38:40.358Z,17.31
2023-04-28T20:41:06.670Z,16.76
2023-04-28T20:43:33.111Z,16.76
2023-04-28T20:45:59.438Z,17.08
2023-04-28T20:48:25.744Z,16.90
2023-04-28T20:50:52.045Z,16.76
2023-04-28T20:53:18.367Z,16.76
2023-04-28T20:55:44.664Z,17.05
2023-04-28T20:58:10.947Z,16.86
2023-04-28T21:00:37.430Z,17.16
2023-04-28T21:03:03.877Z,17.24
2023-04-28T21:05:30.397Z,17.48
2023-04-28T21:07:56.749Z,17.61
2023-04-28T21:10:23.048Z,17.60
2023-04-28T21:12:49.344Z,17.44
2023-04-28T21:15:15.713Z,16.53
2023-04-28T21:17:42.108Z,16.16
2023-04-28T21:20:08.440Z,15.92
2023-04-28T21:22:34.769Z,16.52
2023-04-28T21:25:01.081Z,16.78
2023-04-28T21:27:27.373Z,16.87
2023-04-28T21:29:53.701Z,16.81
2023-04-28T21:32:20.147Z,17.22
2023-04-28T21:34:46.753Z,17.18
2023-04-28T21:37:13.221Z,16.74
2023-04-28T21:39:39.544Z,16.50
2023-04-28T21:42:05.839Z,16.30
2023-04-28T21:44:32.161Z,16.42
2023-04-28T21:46:58.457Z,16.52
2023-04-28T21:49:24.745Z,16.55
2023-04-28T21:51:51.084Z,16.52
2023-04-28T21:54:17.376Z,16.54
2023-04-28T21:56:43.701Z,16.92
2023-04-28T21:59:10.045Z,16.95
2023-04-28T22:01:36.387Z,16.77
2023-04-28T22:04:02.859Z,16.70
2023-04-28T22:06:29.334Z,16.35
2023-04-28T22:08:55.633Z,16.32
2023-04-28T22:11:22.127Z,16.36
2023-04-28T22:13:48.444Z,16.38
2023-04-28T22:16:14.796Z,16.70
2023-04-28T22:18:41.179Z,16.40
2023-04-28T22:21:07.539Z,16.14
2023-04-28T22:23:33.838Z,16.47
2023-04-28T22:26:00.176Z,16.38
2023-04-28T22:28:26.513Z,16.55
2023-04-28T22:30:52.891Z,16.86
2023-04-28T22:33:19.197Z,16.99
2023-04-28T22:35:45.516Z,17.04
2023-04-28T22:38:11.830Z,17.00
2023-04-28T22:40:38.130Z,17.05
2023-04-28T22:43:04.451Z,16.60
2023-04-28T22:45:30.750Z,16.78
2023-04-28T22:47:57.164Z,16.28
2023-04-28T22:50:23.636Z,16.13
2023-04-28T22:52:49.940Z,16.25
2023-04-28T22:55:16.245Z,16.55
2023-04-28T22:57:42.579Z,16.83
2023-04-28T23:00:08.877Z,16.69
2023-04-28T23:02:35.236Z,16.89
2023-04-28T23:05:01.624Z,16.93
2023-04-28T23:07:27.910Z,17.04
2023-04-28T23:09:54.336Z,16.70
2023-04-28T23:12:20.678Z,16.75
2023-04-28T23:14:46.981Z,16.65
2023-04-28T23:17:13.285Z,16.43
2023-04-28T23:19:39.710Z,15.90
2023-04-28T23:22:06.107Z,16.42
2023-04-28T23:24:32.425Z,16.58
2023-04-28T23:26:58.801Z,16.43
2023-04-28T23:29:25.089Z,16.56
2023-04-28T23:31:51.403Z,16.53
2023-04-28T23:34:17.754Z,16.62
2023-04-28T23:36:44.046Z,16.54
2023-04-28T23:39:10.345Z,16.39
2023-04-28T23:41:36.662Z,16.16
2023-04-28T23:44:02.970Z,16.51
2023-04-28T23:46:29.283Z,16.50
2023-04-28T23:48:55.591Z,16.52
2023-04-28T23:51:21.902Z,16.39
2023-04-28T23:53:48.243Z,16.54
2023-04-28T23:56:14.594Z,16.66
2023-04-28T23:58:41.056Z,16.48
